Time,TemperatureF,DewpointF,PressureIn,WindDirection,WindDirectionDegrees,WindSpeedMPH,WindSpeedGustMPH,Humidity,HourlyPrecipIn,Conditions,Clouds,dailyrainin,SoftwareType,DateUTC
2013-04-30 00:05:00,53.8,27.5,30.20,South,180,1.6,-999.0,36,-99.99,,,0.00,Acu-Link.com,2013-04-30 04:05:00,
2013-04-30 00:21:00,53.8,27.5,30.19,South,180,1.6,-999.0,36,-99.99,,,0.00,Acu-Link.com,2013-04-30 04:21:00,
2013-04-30 00:36:00,53.8,27.5,30.19,South,180,1.6,-999.0,36,-99.99,,,0.00,Acu-Link.com,2013-04-30 04:36:00,
2013-04-30 00:51:00,53.8,27.5,30.19,South,180,1.6,-999.0,36,-99.99,,,0.00,Acu-Link.com,2013-04-30 04:51:00,
2013-04-30 01:06:00,53.8,27.5,30.19,South,180,1.6,-999.0,36,-99.99,,,0.00,Acu-Link.com,2013-04-30 05:06:00,
2013-04-30 01:22:00,53.8,27.5,30.19,South,180,1.6,-999.0,36,-99.99,,,0.00,Acu-Link.com,2013-04-30 05:22:00,
2013-04-30 01:37:00,53.8,27.5,30.19,South,180,1.6,-999.0,36,-99.99,,,0.00,Acu-Link.com,2013-04-30 05:37:00,
2013-04-30 01:52:00,53.8,27.5,30.19,South,180,1.6,-999.0,36,-99.99,,,0.00,Acu-Link.com,2013-04-30 05:52:00,
2013-04-30 02:07:00,53.8,27.5,30.19,South,180,1.6,-999.0,36,-99.99,,,0.00,Acu-Link.com,2013-04-30 06:07:00,
2013-04-30 02:22:00,53.8,27.5,30.19,South,180,1.6,-999.0,36,-99.99,,,0.00,Acu-Link.com,2013-04-30 06:22:00,
2013-04-30 02:38:00,53.8,27.5,30.19,South,180,1.6,-999.0,36,-99.99,,,0.00,Acu-Link.com,2013-04-30 06:38:00,
2013-04-30 02:53:00,53.8,27.5,30.19,South,180,1.6,-999.0,36,-99.99,,,0.00,Acu-Link.com,2013-04-30 06:53:00,
2013-04-30 03:08:00,53.8,27.5,30.18,South,180,1.6,-999.0,36,-99.99,,,0.00,Acu-Link.com,2013-04-30 07:08:00,
2013-04-30 03:23:00,53.8,27.5,30.19,South,180,1.6,-999.0,36,-99.99,,,0.00,Acu-Link.com,2013-04-30 07:23:00,
2013-04-30 03:39:00,53.8,27.5,30.19,South,180,1.6,-999.0,36,-99.99,,,0.00,Acu-Link.com,2013-04-30 07:39:00,
2013-04-30 03:54:00,53.8,27.5,30.19,South,180,1.6,-999.0,36,-99.99,,,0.00,Acu-Link.com,2013-04-30 07:54:00,
2013-04-30 04:10:00,53.8,27.5,30.19,South,180,1.6,-999.0,36,-99.99,,,0.00,Acu-Link.com,2013-04-30 08:10:00,
2013-04-30 04:25:00,53.8,27.5,30.19,South,180,1.6,-999.0,36,-99.99,,,0.00,Acu-Link.com,2013-04-30 08:25:00,
2013-04-30 04:40:00,53.8,27.5,30.20,South,180,1.6,-999.0,36,-99.99,,,0.00,Acu-Link.com,2013-04-30 08:40:00,
2013-04-30 04:55:00,53.8,27.5,30.20,South,180,1.6,-999.0,36,-99.99,,,0.00,Acu-Link.com,2013-04-30 08:55:00,
2013-04-30 05:10:00,53.8,27.5,30.21,South,180,1.6,-999.0,36,-99.99,,,0.00,Acu-Link.com,2013-04-30 09:10:00,
2013-04-30 05:25:00,53.8,27.5,30.21,South,180,1.6,-999.0,36,-99.99,,,0.00,Acu-Link.com,2013-04-30 09:25:00,
2013-04-30 05:40:00,53.8,27.5,30.21,South,180,1.6,-999.0,36,-99.99,,,0.00,Acu-Link.com,2013-04-30 09:40:00,
2013-04-30 05:56:00,53.8,27.5,30.21,South,180,1.6,-999.0,36,-99.99,,,0.00,Acu-Link.com,2013-04-30 09:56:00,
2013-04-30 06:11:00,53.8,27.5,30.22,South,180,1.6,-999.0,36,-99.99,,,0.00,Acu-Link.com,2013-04-30 10:11:00,
2013-04-30 06:26:00,45.0,35.8,30.22,SSE,157,0.0,-999.0,70,-99.99,,,0.00,Acu-Link.com,2013-04-30 10:26:00,
2013-04-30 06:41:00,44.8,36.3,30.23,SSE,157,0.0,-999.0,72,-99.99,,,0.00,Acu-Link.com,2013-04-30 10:41:00,
2013-04-30 06:56:00,44.8,36.3,30.23,SSE,157,0.0,-999.0,72,-99.99,,,0.00,Acu-Link.com,2013-04-30 10:56:00,
2013-04-30 07:12:00,44.8,36.3,30.24,SSE,157,0.0,-999.0,72,-99.99,,,0.00,Acu-Link.com,2013-04-30 11:12:00,
2013-04-30 07:27:00,44.8,36.3,30.24,SSE,157,0.0,-999.0,72,-99.99,,,0.00,Acu-Link.com,2013-04-30 11:27:00,
2013-04-30 07:42:00,44.8,36.3,30.25,SSE,157,0.0,-999.0,72,-99.99,,,0.00,Acu-Link.com,2013-04-30 11:42:00,
2013-04-30 07:58:00,44.8,36.3,30.24,SSE,157,0.0,-999.0,72,-99.99,,,0.00,Acu-Link.com,2013-04-30 11:58:00,
2013-04-30 08:13:00,44.8,36.3,30.25,SSE,157,0.0,-999.0,72,-99.99,,,0.00,Acu-Link.com,2013-04-30 12:13:00,
2013-04-30 08:28:00,44.8,36.3,30.25,SSE,157,0.0,-999.0,72,-99.99,,,0.00,Acu-Link.com,2013-04-30 12:28:00,
2013-04-30 08:43:00,44.8,36.3,30.26,SSE,157,0.0,-999.0,72,-99.99,,,0.00,Acu-Link.com,2013-04-30 12:43:00,
2013-04-30 08:58:00,44.8,36.3,30.26,SSE,157,0.0,-999.0,72,-99.99,,,0.00,Acu-Link.com,2013-04-30 12:58:00,
2013-04-30 09:14:00,60.3,30.3,30.26,SW,225,1.6,-999.0,32,-99.99,,,0.00,Acu-Link.com,2013-04-30 13:14:00,
2013-04-30 09:29:00,58.6,27.3,30.26,SE,135,2.2,-999.0,30,-99.99,,,0.00,Acu-Link.com,2013-04-30 13:29:00,
2013-04-30 09:44:00,62.8,26.4,30.26,WSW,247,3.1,-999.0,25,-99.99,,,0.00,Acu-Link.com,2013-04-30 13:44:00,
2013-04-30 10:00:00,64.2,27.7,30.26,WSW,247,4.7,-999.0,25,-99.99,,,0.00,Acu-Link.com,2013-04-30 14:00:00,
2013-04-30 10:15:00,64.8,29.1,30.26,WSW,247,4.7,-999.0,26,-99.99,,,0.00,Acu-Link.com,2013-04-30 14:15:00,
2013-04-30 10:30:00,66.2,29.3,30.25,SW,225,7.4,-999.0,25,-99.99,,,0.00,Acu-Link.com,2013-04-30 14:30:00,
2013-04-30 10:46:00,65.7,31.7,30.25,South,180,2.2,-999.0,28,-99.99,,,0.00,Acu-Link.com,2013-04-30 14:46:00,
2013-04-30 11:01:00,64.9,27.3,30.25,East,90,2.2,-999.0,24,-99.99,,,0.00,Acu-Link.com,2013-04-30 15:01:00,
2013-04-30 11:16:00,66.7,26.7,30.24,SW,225,6.7,-999.0,22,-99.99,,,0.00,Acu-Link.com,2013-04-30 15:16:00,
2013-04-30 11:31:00,68.4,26.9,30.24,WSW,247,5.8,-999.0,21,-99.99,,,0.00,Acu-Link.com,2013-04-30 15:31:00,
2013-04-30 11:47:00,67.6,23.9,30.24,WSW,247,4.3,-999.0,19,-99.99,,,0.00,Acu-Link.com,2013-04-30 15:47:00,
2013-04-30 12:02:00,70.7,28.9,30.24,NNW,337,1.1,-999.0,21,-99.99,,,0.00,Acu-Link.com,2013-04-30 16:02:00,
2013-04-30 12:17:00,68.0,25.4,30.23,SSE,157,4.3,-999.0,20,-99.99,,,0.00,Acu-Link.com,2013-04-30 16:17:00,
2013-04-30 12:32:00,69.8,24.4,30.23,NE,45,5.1,-999.0,18,-99.99,,,0.00,Acu-Link.com,2013-04-30 16:32:00,
2013-04-30 12:48:00,69.1,23.8,30.22,ENE,67,6.7,-999.0,18,-99.99,,,0.00,Acu-Link.com,2013-04-30 16:48:00,
2013-04-30 13:03:00,70.5,30.9,30.22,SSW,202,5.8,-999.0,23,-99.99,,,0.00,Acu-Link.com,2013-04-30 17:03:00,
2013-04-30 13:18:00,70.5,29.8,30.22,ESE,112,1.6,-999.0,22,-99.99,,,0.00,Acu-Link.com,2013-04-30 17:18:00,
2013-04-30 13:34:00,70.5,29.8,30.22,ESE,112,1.6,-999.0,22,-99.99,,,0.00,Acu-Link.com,2013-04-30 17:34:00,
2013-04-30 13:49:00,70.5,29.8,30.21,ESE,112,1.6,-999.0,22,-99.99,,,0.00,Acu-Link.com,2013-04-30 17:49:00,
2013-04-30 14:04:00,72.1,32.3,30.21,SW,225,5.8,-999.0,23,-99.99,,,0.00,Acu-Link.com,2013-04-30 18:04:00,
2013-04-30 14:19:00,70.5,27.5,30.21,NNE,22,2.7,-999.0,20,-99.99,,,0.00,Acu-Link.com,2013-04-30 18:19:00,
2013-04-30 14:35:00,70.5,27.5,30.21,NNE,22,2.7,-999.0,20,-99.99,,,0.00,Acu-Link.com,2013-04-30 18:35:00,
2013-04-30 14:50:00,70.5,27.5,30.20,NNE,22,2.7,-999.0,20,-99.99,,,0.00,Acu-Link.com,2013-04-30 18:50:00,
2013-04-30 15:05:00,70.5,27.5,30.20,ESE,112,5.8,-999.0,20,-99.99,,,0.00,Acu-Link.com,2013-04-30 19:05:00,
2013-04-30 15:20:00,70.5,27.5,30.19,ESE,112,5.8,-999.0,20,-99.99,,,0.00,Acu-Link.com,2013-04-30 19:20:00,
2013-04-30 15:36:00,70.5,27.5,30.19,ESE,112,5.8,-999.0,20,-99.99,,,0.00,Acu-Link.com,2013-04-30 19:36:00,
2013-04-30 15:51:00,70.5,27.5,30.19,ESE,112,5.8,-999.0,20,-99.99,,,0.00,Acu-Link.com,2013-04-30 19:51:00,
2013-04-30 16:06:00,70.5,27.5,30.19,ESE,112,5.8,-999.0,20,-99.99,,,0.00,Acu-Link.com,2013-04-30 20:06:00,
2013-04-30 16:21:00,70.5,27.5,30.19,South,180,3.8,-999.0,20,-99.99,,,0.00,Acu-Link.com,2013-04-30 20:21:00,
2013-04-30 16:37:00,72.7,30.5,30.19,NNW,337,2.2,-999.0,21,-99.99,,,0.00,Acu-Link.com,2013-04-30 20:37:00,
2013-04-30 16:52:00,72.1,32.3,30.19,North,0,3.1,-999.0,23,-99.99,,,0.00,Acu-Link.com,2013-04-30 20:52:00,
2013-04-30 17:07:00,72.1,32.3,30.19,North,0,3.1,-999.0,23,-99.99,,,0.00,Acu-Link.com,2013-04-30 21:07:00,
2013-04-30 17:22:00,70.7,31.1,30.19,NNW,337,3.8,-999.0,23,-99.99,,,0.00,Acu-Link.com,2013-04-30 21:22:00,
2013-04-30 17:38:00,69.6,31.2,30.19,SSE,157,2.2,-999.0,24,-99.99,,,0.00,Acu-Link.com,2013-04-30 21:38:00,
2013-04-30 17:53:00,69.4,32.1,30.20,SW,225,2.7,-999.0,25,-99.99,,,0.00,Acu-Link.com,2013-04-30 21:53:00,
2013-04-30 18:08:00,68.9,31.6,30.20,WSW,247,3.1,-999.0,25,-99.99,,,0.00,Acu-Link.com,2013-04-30 22:08:00,
2013-04-30 18:24:00,67.8,31.7,30.20,SSW,202,2.7,-999.0,26,-99.99,,,0.00,Acu-Link.com,2013-04-30 22:24:00,
2013-04-30 18:39:00,66.9,31.8,30.20,WSW,247,4.3,-999.0,27,-99.99,,,0.00,Acu-Link.com,2013-04-30 22:39:00,
2013-04-30 18:54:00,66.0,31.1,30.21,SW,225,4.3,-999.0,27,-99.99,,,0.00,Acu-Link.com,2013-04-30 22:54:00,
2013-04-30 19:10:00,65.3,31.4,30.21,SSW,202,3.8,-999.0,28,-99.99,,,0.00,Acu-Link.com,2013-04-30 23:10:00,
2013-04-30 19:25:00,63.9,31.8,30.22,West,270,0.0,-999.0,30,-99.99,,,0.00,Acu-Link.com,2013-04-30 23:25:00,
2013-04-30 19:40:00,62.6,29.0,30.23,SW,225,1.1,-999.0,28,-99.99,,,0.00,Acu-Link.com,2013-04-30 23:40:00,
2013-04-30 19:55:00,61.2,29.5,30.24,WSW,247,0.0,-999.0,30,-99.99,,,0.00,Acu-Link.com,2013-04-30 23:55:00,
2013-04-30 20:10:00,60.3,28.7,30.24,South,180,1.6,-999.0,30,-99.99,,,0.00,Acu-Link.com,2013-05-01 00:10:00,
2013-04-30 20:26:00,59.9,28.4,30.25,South,180,3.1,-999.0,30,-99.99,,,0.00,Acu-Link.com,2013-05-01 00:26:00,
2013-04-30 20:41:00,58.6,28.1,30.25,SW,225,2.2,-999.0,31,-99.99,,,0.00,Acu-Link.com,2013-05-01 00:41:00,
2013-04-30 20:56:00,56.8,27.3,30.27,SW,225,2.7,-999.0,32,-99.99,,,0.00,Acu-Link.com,2013-05-01 00:56:00,
2013-04-30 21:11:00,56.3,26.8,30.27,South,180,1.6,-999.0,32,-99.99,,,0.00,Acu-Link.com,2013-05-01 01:11:00,
2013-04-30 21:27:00,55.0,25.7,30.28,South,180,1.6,-999.0,32,-99.99,,,0.00,Acu-Link.com,2013-05-01 01:27:00,
2013-04-30 21:42:00,53.4,26.5,30.28,South,180,2.2,-999.0,35,-99.99,,,0.00,Acu-Link.com,2013-05-01 01:42:00,
2013-04-30 21:57:00,53.2,26.3,30.28,South,180,0.0,-999.0,35,-99.99,,,0.00,Acu-Link.com,2013-05-01 01:57:00,
2013-04-30 22:12:00,49.6,26.3,30.28,South,180,0.0,-999.0,40,-99.99,,,0.00,Acu-Link.com,2013-05-01 02:12:00,
2013-04-30 22:28:00,49.3,26.0,30.28,SW,225,1.6,-999.0,40,-99.99,,,0.00,Acu-Link.com,2013-05-01 02:28:00,
2013-04-30 22:43:00,49.3,26.6,30.29,WSW,247,1.6,-999.0,41,-99.99,,,0.00,Acu-Link.com,2013-05-01 02:43:00,
2013-04-30 22:58:00,48.6,25.9,30.29,WSW,247,0.0,-999.0,41,-99.99,,,0.00,Acu-Link.com,2013-05-01 02:58:00,
2013-04-30 23:13:00,47.5,27.2,30.29,WSW,247,0.0,-999.0,45,-99.99,,,0.00,Acu-Link.com,2013-05-01 03:13:00,
2013-04-30 23:29:00,45.9,27.3,30.29,WSW,247,0.0,-999.0,48,-99.99,,,0.00,Acu-Link.com,2013-05-01 03:29:00,
2013-04-30 23:44:00,44.8,27.3,30.29,WSW,247,0.0,-999.0,50,-99.99,,,0.00,Acu-Link.com,2013-05-01 03:44:00,
2013-04-30 23:59:00,43.9,27.4,30.29,WSW,247,0.0,-999.0,52,-99.99,,,0.00,Acu-Link.com,2013-05-01 03:59:00,